sensor_id;sensor_type;location;lat;lon;timestamp;P1;durP1;ratioP1;P2;durP2;ratioP2
74523;SDS011;63074;44.696;10.358;2023-04-25T00:00:28;4.60;;;2.70;;
74523;SDS011;63074;44.696;10.358;2023-04-25T00:02:54;3.10;;;2.00;;
74523;SDS011;63074;44.696;10.358;2023-04-25T00:05:21;2.35;;;1.77;;
74523;SDS011;63074;44.696;10.358;2023-04-25T00:07:51;4.45;;;2.30;;
74523;SDS011;63074;44.696;10.358;2023-04-25T00:10:18;4.18;;;2.78;;
74523;SDS011;63074;44.696;10.358;2023-04-25T00:12:45;4.85;;;3.03;;
74523;SDS011;63074;44.696;10.358;2023-04-25T00:15:11;5.45;;;3.08;;
74523;SDS011;63074;44.696;10.358;2023-04-25T00:17:38;3.90;;;2.83;;
74523;SDS011;63074;44.696;10.358;2023-04-25T00:20:04;4.78;;;3.20;;
74523;SDS011;63074;44.696;10.358;2023-04-25T00:22:32;3.80;;;2.60;;
74523;SDS011;63074;44.696;10.358;2023-04-25T00:24:59;5.38;;;2.97;;
74523;SDS011;63074;44.696;10.358;2023-04-25T00:27:26;4.53;;;2.88;;
74523;SDS011;63074;44.696;10.358;2023-04-25T00:29:52;5.93;;;3.20;;
74523;SDS011;63074;44.696;10.358;2023-04-25T00:32:18;4.80;;;2.95;;
74523;SDS011;63074;44.696;10.358;2023-04-25T00:34:44;4.60;;;3.00;;
74523;SDS011;63074;44.696;10.358;2023-04-25T00:37:11;5.53;;;3.40;;
74523;SDS011;63074;44.696;10.358;2023-04-25T00:39:37;6.32;;;3.40;;
74523;SDS011;63074;44.696;10.358;2023-04-25T00:42:04;4.20;;;3.30;;
74523;SDS011;63074;44.696;10.358;2023-04-25T00:44:30;4.90;;;3.08;;
74523;SDS011;63074;44.696;10.358;2023-04-25T00:46:57;4.18;;;2.50;;
74523;SDS011;63074;44.696;10.358;2023-04-25T00:49:25;4.40;;;2.95;;
74523;SDS011;63074;44.696;10.358;2023-04-25T00:51:51;3.63;;;2.72;;
74523;SDS011;63074;44.696;10.358;2023-04-25T00:54:19;3.53;;;2.10;;
74523;SDS011;63074;44.696;10.358;2023-04-25T00:56:45;4.50;;;2.75;;
74523;SDS011;63074;44.696;10.358;2023-04-25T00:59:12;3.25;;;1.90;;
74523;SDS011;63074;44.696;10.358;2023-04-25T01:01:40;3.90;;;2.10;;
74523;SDS011;63074;44.696;10.358;2023-04-25T01:04:07;4.63;;;2.10;;
74523;SDS011;63074;44.696;10.358;2023-04-25T01:06:33;4.65;;;1.75;;
74523;SDS011;63074;44.696;10.358;2023-04-25T01:09:00;3.42;;;1.80;;
74523;SDS011;63074;44.696;10.358;2023-04-25T01:11:27;5.40;;;2.08;;
74523;SDS011;63074;44.696;10.358;2023-04-25T01:13:54;4.00;;;1.95;;
74523;SDS011;63074;44.696;10.358;2023-04-25T01:16:20;3.85;;;2.15;;
74523;SDS011;63074;44.696;10.358;2023-04-25T01:18:48;2.70;;;2.22;;
74523;SDS011;63074;44.696;10.358;2023-04-25T01:21:16;3.03;;;1.92;;
74523;SDS011;63074;44.696;10.358;2023-04-25T01:23:42;3.92;;;1.88;;
74523;SDS011;63074;44.696;10.358;2023-04-25T01:26:11;3.33;;;2.28;;
74523;SDS011;63074;44.696;10.358;2023-04-25T01:28:38;4.20;;;2.13;;
74523;SDS011;63074;44.696;10.358;2023-04-25T01:31:08;3.45;;;2.22;;
74523;SDS011;63074;44.696;10.358;2023-04-25T01:33:37;3.65;;;2.28;;
74523;SDS011;63074;44.696;10.358;2023-04-25T01:36:04;4.03;;;2.05;;
74523;SDS011;63074;44.696;10.358;2023-04-25T01:38:30;4.03;;;2.33;;
74523;SDS011;63074;44.696;10.358;2023-04-25T01:40:57;3.35;;;2.35;;
74523;SDS011;63074;44.696;10.358;2023-04-25T01:43:23;3.72;;;2.13;;
74523;SDS011;63074;44.696;10.358;2023-04-25T01:45:51;4.47;;;2.42;;
74523;SDS011;63074;44.696;10.358;2023-04-25T01:48:17;4.13;;;2.47;;
74523;SDS011;63074;44.696;10.358;2023-04-25T01:50:44;5.05;;;2.63;;
74523;SDS011;63074;44.696;10.358;2023-04-25T01:53:10;4.72;;;2.33;;
74523;SDS011;63074;44.696;10.358;2023-04-25T01:55:39;4.40;;;2.15;;
74523;SDS011;63074;44.696;10.358;2023-04-25T01:58:05;3.47;;;1.98;;
74523;SDS011;63074;44.696;10.358;2023-04-25T02:00:34;3.83;;;2.55;;
74523;SDS011;63074;44.696;10.358;2023-04-25T02:03:03;4.60;;;2.15;;
74523;SDS011;63074;44.696;10.358;2023-04-25T02:05:39;3.72;;;2.33;;
74523;SDS011;63074;44.696;10.358;2023-04-25T02:08:06;3.90;;;2.22;;
74523;SDS011;63074;44.696;10.358;2023-04-25T02:10:33;3.78;;;2.13;;
74523;SDS011;63074;44.696;10.358;2023-04-25T02:13:00;3.60;;;1.95;;
74523;SDS011;63074;44.696;10.358;2023-04-25T02:15:26;3.38;;;2.13;;
74523;SDS011;63074;44.696;10.358;2023-04-25T02:17:52;5.35;;;2.55;;
74523;SDS011;63074;44.696;10.358;2023-04-25T02:20:22;2.42;;;1.50;;
74523;SDS011;63074;44.696;10.358;2023-04-25T02:22:49;3.15;;;1.85;;
74523;SDS011;63074;44.696;10.358;2023-04-25T02:25:16;3.42;;;2.30;;
74523;SDS011;63074;44.696;10.358;2023-04-25T02:27:45;3.13;;;2.20;;
74523;SDS011;63074;44.696;10.358;2023-04-25T02:30:12;3.10;;;1.70;;
74523;SDS011;63074;44.696;10.358;2023-04-25T02:32:38;2.97;;;2.25;;
74523;SDS011;63074;44.696;10.358;2023-04-25T02:35:05;4.00;;;2.47;;
74523;SDS011;63074;44.696;10.358;2023-04-25T02:37:35;3.03;;;1.55;;
74523;SDS011;63074;44.696;10.358;2023-04-25T02:40:02;3.35;;;2.00;;
74523;SDS011;63074;44.696;10.358;2023-04-25T02:42:29;3.65;;;1.90;;
74523;SDS011;63074;44.696;10.358;2023-04-25T02:44:55;4.35;;;2.28;;
74523;SDS011;63074;44.696;10.358;2023-04-25T02:47:22;3.45;;;2.05;;
74523;SDS011;63074;44.696;10.358;2023-04-25T02:49:48;3.38;;;1.75;;
74523;SDS011;63074;44.696;10.358;2023-04-25T02:52:14;3.60;;;2.40;;
74523;SDS011;63074;44.696;10.358;2023-04-25T02:54:40;3.53;;;1.65;;
74523;SDS011;63074;44.696;10.358;2023-04-25T02:57:06;3.15;;;2.05;;
74523;SDS011;63074;44.696;10.358;2023-04-25T02:59:33;2.67;;;1.85;;
74523;SDS011;63074;44.696;10.358;2023-04-25T03:01:59;2.42;;;1.85;;
74523;SDS011;63074;44.696;10.358;2023-04-25T03:04:26;4.07;;;2.30;;
74523;SDS011;63074;44.696;10.358;2023-04-25T03:06:53;3.88;;;2.08;;
74523;SDS011;63074;44.696;10.358;2023-04-25T03:09:19;2.63;;;1.63;;
74523;SDS011;63074;44.696;10.358;2023-04-25T03:11:45;5.00;;;2.20;;
74523;SDS011;63074;44.696;10.358;2023-04-25T03:14:12;3.78;;;1.90;;
74523;SDS011;63074;44.696;10.358;2023-04-25T03:16:38;3.75;;;2.58;;
74523;SDS011;63074;44.696;10.358;2023-04-25T03:19:05;2.60;;;1.73;;
74523;SDS011;63074;44.696;10.358;2023-04-25T03:21:32;4.05;;;2.15;;
74523;SDS011;63074;44.696;10.358;2023-04-25T03:23:59;6.65;;;2.47;;
74523;SDS011;63074;44.696;10.358;2023-04-25T03:26:27;3.85;;;2.22;;
74523;SDS011;63074;44.696;10.358;2023-04-25T03:28:53;2.72;;;2.00;;
74523;SDS011;63074;44.696;10.358;2023-04-25T03:31:20;3.45;;;2.58;;
74523;SDS011;63074;44.696;10.358;2023-04-25T03:33:47;3.53;;;2.47;;
74523;SDS011;63074;44.696;10.358;2023-04-25T03:36:13;3.47;;;2.00;;
74523;SDS011;63074;44.696;10.358;2023-04-25T03:38:39;4.20;;;2.25;;
74523;SDS011;63074;44.696;10.358;2023-04-25T03:41:06;3.92;;;1.40;;
74523;SDS011;63074;44.696;10.358;2023-04-25T03:43:33;2.47;;;1.63;;
74523;SDS011;63074;44.696;10.358;2023-04-25T03:45:59;4.40;;;1.83;;
74523;SDS011;63074;44.696;10.358;2023-04-25T03:48:26;3.17;;;1.73;;
74523;SDS011;63074;44.696;10.358;2023-04-25T03:50:52;3.15;;;1.90;;
74523;SDS011;63074;44.696;10.358;2023-04-25T03:53:19;2.63;;;2.15;;
74523;SDS011;63074;44.696;10.358;2023-04-25T03:55:45;4.40;;;2.40;;
74523;SDS011;63074;44.696;10.358;2023-04-25T03:58:12;2.90;;;1.98;;
74523;SDS011;63074;44.696;10.358;2023-04-25T04:00:38;3.80;;;2.03;;
74523;SDS011;63074;44.696;10.358;2023-04-25T04:03:04;4.38;;;2.20;;
74523;SDS011;63074;44.696;10.358;2023-04-25T04:05:30;4.50;;;2.35;;
74523;SDS011;63074;44.696;10.358;2023-04-25T04:07:57;3.03;;;1.83;;
74523;SDS011;63074;44.696;10.358;2023-04-25T04:10:23;2.92;;;2.40;;
74523;SDS011;63074;44.696;10.358;2023-04-25T04:12:51;3.53;;;2.00;;
74523;SDS011;63074;44.696;10.358;2023-04-25T04:15:17;4.72;;;2.42;;
74523;SDS011;63074;44.696;10.358;2023-04-25T04:17:43;5.18;;;1.48;;
74523;SDS011;63074;44.696;10.358;2023-04-25T04:20:09;3.70;;;1.83;;
74523;SDS011;63074;44.696;10.358;2023-04-25T04:22:36;3.10;;;1.80;;
74523;SDS011;63074;44.696;10.358;2023-04-25T04:25:02;4.38;;;2.33;;
74523;SDS011;63074;44.696;10.358;2023-04-25T04:27:29;4.78;;;2.58;;
74523;SDS011;63074;44.696;10.358;2023-04-25T04:29:57;3.92;;;1.95;;
74523;SDS011;63074;44.696;10.358;2023-04-25T04:32:23;3.67;;;2.03;;
74523;SDS011;63074;44.696;10.358;2023-04-25T04:34:50;2.92;;;2.20;;
74523;SDS011;63074;44.696;10.358;2023-04-25T04:37:17;4.22;;;2.30;;
74523;SDS011;63074;44.696;10.358;2023-04-25T04:39:43;4.15;;;2.30;;
74523;SDS011;63074;44.696;10.358;2023-04-25T04:42:10;3.72;;;1.88;;
74523;SDS011;63074;44.696;10.358;2023-04-25T04:44:36;3.60;;;2.00;;
74523;SDS011;63074;44.696;10.358;2023-04-25T04:47:04;3.13;;;2.47;;
74523;SDS011;63074;44.696;10.358;2023-04-25T04:49:31;5.43;;;2.45;;
74523;SDS011;63074;44.696;10.358;2023-04-25T04:51:57;2.97;;;2.08;;
74523;SDS011;63074;44.696;10.358;2023-04-25T04:54:25;3.17;;;2.03;;
74523;SDS011;63074;44.696;10.358;2023-04-25T04:56:52;2.95;;;1.95;;
74523;SDS011;63074;44.696;10.358;2023-04-25T04:59:18;4.25;;;2.17;;
74523;SDS011;63074;44.696;10.358;2023-04-25T05:01:44;3.65;;;2.15;;
74523;SDS011;63074;44.696;10.358;2023-04-25T05:04:11;4.25;;;2.10;;
74523;SDS011;63074;44.696;10.358;2023-04-25T05:06:38;4.40;;;2.45;;
74523;SDS011;63074;44.696;10.358;2023-04-25T05:09:04;4.80;;;2.60;;
74523;SDS011;63074;44.696;10.358;2023-04-25T05:11:30;3.17;;;1.88;;
74523;SDS011;63074;44.696;10.358;2023-04-25T05:13:56;3.30;;;2.05;;
74523;SDS011;63074;44.696;10.358;2023-04-25T05:16:22;4.53;;;2.05;;
74523;SDS011;63074;44.696;10.358;2023-04-25T05:18:48;4.10;;;2.58;;
74523;SDS011;63074;44.696;10.358;2023-04-25T05:21:14;4.05;;;1.83;;
74523;SDS011;63074;44.696;10.358;2023-04-25T05:23:41;4.70;;;1.88;;
74523;SDS011;63074;44.696;10.358;2023-04-25T05:26:07;3.95;;;1.88;;
74523;SDS011;63074;44.696;10.358;2023-04-25T05:28:39;4.65;;;2.30;;
74523;SDS011;63074;44.696;10.358;2023-04-25T05:31:06;6.40;;;2.35;;
74523;SDS011;63074;44.696;10.358;2023-04-25T05:33:34;7.05;;;2.60;;
74523;SDS011;63074;44.696;10.358;2023-04-25T05:36:01;5.88;;;3.08;;
74523;SDS011;63074;44.696;10.358;2023-04-25T05:38:27;5.90;;;2.63;;
74523;SDS011;63074;44.696;10.358;2023-04-25T05:40:53;4.20;;;2.25;;
74523;SDS011;63074;44.696;10.358;2023-04-25T05:43:19;5.15;;;2.30;;
74523;SDS011;63074;44.696;10.358;2023-04-25T05:45:46;3.78;;;2.22;;
74523;SDS011;63074;44.696;10.358;2023-04-25T05:48:12;4.72;;;2.33;;
74523;SDS011;63074;44.696;10.358;2023-04-25T05:50:38;4.82;;;2.80;;
74523;SDS011;63074;44.696;10.358;2023-04-25T05:53:04;4.00;;;2.75;;
74523;SDS011;63074;44.696;10.358;2023-04-25T05:55:31;4.32;;;2.75;;
74523;SDS011;63074;44.696;10.358;2023-04-25T05:57:57;6.07;;;3.28;;
74523;SDS011;63074;44.696;10.358;2023-04-25T06:00:23;3.58;;;2.47;;
74523;SDS011;63074;44.696;10.358;2023-04-25T06:02:49;5.30;;;3.15;;
74523;SDS011;63074;44.696;10.358;2023-04-25T06:05:15;7.30;;;3.25;;
74523;SDS011;63074;44.696;10.358;2023-04-25T06:07:42;4.55;;;2.92;;
74523;SDS011;63074;44.696;10.358;2023-04-25T06:10:08;6.65;;;4.13;;
74523;SDS011;63074;44.696;10.358;2023-04-25T06:12:35;5.57;;;3.85;;
74523;SDS011;63074;44.696;10.358;2023-04-25T06:15:01;5.53;;;4.15;;
74523;SDS011;63074;44.696;10.358;2023-04-25T06:17:27;6.80;;;3.50;;
74523;SDS011;63074;44.696;10.358;2023-04-25T06:19:53;5.18;;;3.35;;
74523;SDS011;63074;44.696;10.358;2023-04-25T06:22:20;6.93;;;4.07;;
74523;SDS011;63074;44.696;10.358;2023-04-25T06:24:46;5.10;;;3.60;;
74523;SDS011;63074;44.696;10.358;2023-04-25T06:27:12;5.18;;;3.95;;
74523;SDS011;63074;44.696;10.358;2023-04-25T06:29:38;5.80;;;3.53;;
74523;SDS011;63074;44.696;10.358;2023-04-25T06:32:04;5.10;;;3.72;;
74523;SDS011;63074;44.696;10.358;2023-04-25T06:34:31;4.55;;;2.90;;
74523;SDS011;63074;44.696;10.358;2023-04-25T06:36:57;7.53;;;3.78;;
74523;SDS011;63074;44.696;10.358;2023-04-25T06:39:23;4.70;;;2.72;;
74523;SDS011;63074;44.696;10.358;2023-04-25T06:41:50;4.93;;;3.70;;
74523;SDS011;63074;44.696;10.358;2023-04-25T06:44:16;5.63;;;3.47;;
74523;SDS011;63074;44.696;10.358;2023-04-25T06:46:42;6.55;;;2.72;;
74523;SDS011;63074;44.696;10.358;2023-04-25T06:49:09;6.43;;;3.42;;
74523;SDS011;63074;44.696;10.358;2023-04-25T06:51:35;5.65;;;3.60;;
74523;SDS011;63074;44.696;10.358;2023-04-25T06:54:01;6.03;;;3.40;;
74523;SDS011;63074;44.696;10.358;2023-04-25T06:56:29;5.25;;;3.05;;
74523;SDS011;63074;44.696;10.358;2023-04-25T06:58:55;5.68;;;2.75;;
74523;SDS011;63074;44.696;10.358;2023-04-25T07:01:22;5.47;;;3.83;;
74523;SDS011;63074;44.696;10.358;2023-04-25T07:03:48;4.15;;;3.00;;
74523;SDS011;63074;44.696;10.358;2023-04-25T07:06:14;4.35;;;2.55;;
74523;SDS011;63074;44.696;10.358;2023-04-25T07:08:40;6.85;;;3.03;;
74523;SDS011;63074;44.696;10.358;2023-04-25T07:11:06;6.40;;;3.58;;
74523;SDS011;63074;44.696;10.358;2023-04-25T07:13:33;5.78;;;3.65;;
74523;SDS011;63074;44.696;10.358;2023-04-25T07:15:59;4.97;;;2.83;;
74523;SDS011;63074;44.696;10.358;2023-04-25T07:18:25;5.20;;;3.22;;
74523;SDS011;63074;44.696;10.358;2023-04-25T07:20:51;5.95;;;3.53;;
74523;SDS011;63074;44.696;10.358;2023-04-25T07:23:17;6.13;;;3.17;;
74523;SDS011;63074;44.696;10.358;2023-04-25T07:25:44;5.60;;;3.42;;
74523;SDS011;63074;44.696;10.358;2023-04-25T07:28:10;6.10;;;4.03;;
74523;SDS011;63074;44.696;10.358;2023-04-25T07:30:36;5.78;;;3.40;;
74523;SDS011;63074;44.696;10.358;2023-04-25T07:33:02;5.03;;;4.15;;
74523;SDS011;63074;44.696;10.358;2023-04-25T07:35:28;7.22;;;4.20;;
74523;SDS011;63074;44.696;10.358;2023-04-25T07:37:55;6.00;;;3.95;;
74523;SDS011;63074;44.696;10.358;2023-04-25T07:40:21;5.30;;;3.88;;
74523;SDS011;63074;44.696;10.358;2023-04-25T07:42:47;6.95;;;4.28;;
74523;SDS011;63074;44.696;10.358;2023-04-25T07:45:13;6.10;;;4.30;;
74523;SDS011;63074;44.696;10.358;2023-04-25T07:47:40;8.43;;;4.20;;
74523;SDS011;63074;44.696;10.358;2023-04-25T07:50:06;6.85;;;4.55;;
74523;SDS011;63074;44.696;10.358;2023-04-25T07:52:33;9.18;;;5.82;;
74523;SDS011;63074;44.696;10.358;2023-04-25T07:54:59;10.75;;;4.65;;
74523;SDS011;63074;44.696;10.358;2023-04-25T07:57:26;8.35;;;6.65;;
74523;SDS011;63074;44.696;10.358;2023-04-25T07:59:52;13.20;;;9.50;;
74523;SDS011;63074;44.696;10.358;2023-04-25T08:02:18;13.02;;;9.70;;
74523;SDS011;63074;44.696;10.358;2023-04-25T08:04:44;7.90;;;5.85;;
74523;SDS011;63074;44.696;10.358;2023-04-25T08:07:11;13.55;;;12.20;;
74523;SDS011;63074;44.696;10.358;2023-04-25T08:09:37;6.38;;;4.28;;
74523;SDS011;63074;44.696;10.358;2023-04-25T08:12:04;7.97;;;4.97;;
74523;SDS011;63074;44.696;10.358;2023-04-25T08:14:30;5.68;;;4.78;;
74523;SDS011;63074;44.696;10.358;2023-04-25T08:17:01;6.15;;;4.28;;
74523;SDS011;63074;44.696;10.358;2023-04-25T08:19:28;5.13;;;3.35;;
74523;SDS011;63074;44.696;10.358;2023-04-25T08:21:55;3.70;;;2.50;;
74523;SDS011;63074;44.696;10.358;2023-04-25T08:24:22;5.97;;;4.18;;
74523;SDS011;63074;44.696;10.358;2023-04-25T08:26:48;4.18;;;2.55;;
74523;SDS011;63074;44.696;10.358;2023-04-25T08:29:15;3.38;;;2.38;;
74523;SDS011;63074;44.696;10.358;2023-04-25T08:31:41;3.17;;;2.35;;
74523;SDS011;63074;44.696;10.358;2023-04-25T08:34:07;3.13;;;2.53;;
74523;SDS011;63074;44.696;10.358;2023-04-25T08:36:33;3.25;;;2.30;;
74523;SDS011;63074;44.696;10.358;2023-04-25T08:38:59;3.75;;;2.28;;
74523;SDS011;63074;44.696;10.358;2023-04-25T08:41:25;3.83;;;2.67;;
74523;SDS011;63074;44.696;10.358;2023-04-25T08:43:52;3.80;;;3.20;;
74523;SDS011;63074;44.696;10.358;2023-04-25T08:46:20;2.75;;;1.77;;
74523;SDS011;63074;44.696;10.358;2023-04-25T08:48:48;1.23;;;0.98;;
74523;SDS011;63074;44.696;10.358;2023-04-25T08:51:22;0.90;;;0.50;;
74523;SDS011;63074;44.696;10.358;2023-04-25T08:53:50;0.98;;;0.70;;
74523;SDS011;63074;44.696;10.358;2023-04-25T08:56:17;3.85;;;0.60;;
74523;SDS011;63074;44.696;10.358;2023-04-25T09:01:15;1.17;;;0.40;;
74523;SDS011;63074;44.696;10.358;2023-04-25T09:03:42;1.67;;;0.63;;
74523;SDS011;63074;44.696;10.358;2023-04-25T09:06:10;1.40;;;0.80;;
74523;SDS011;63074;44.696;10.358;2023-04-25T09:08:37;1.52;;;0.73;;
74523;SDS011;63074;44.696;10.358;2023-04-25T09:11:05;2.00;;;0.82;;
74523;SDS011;63074;44.696;10.358;2023-04-25T09:13:32;1.10;;;0.88;;
74523;SDS011;63074;44.696;10.358;2023-04-25T09:15:58;2.85;;;1.25;;
74523;SDS011;63074;44.696;10.358;2023-04-25T09:18:28;1.88;;;1.50;;
74523;SDS011;63074;44.696;10.358;2023-04-25T09:21:04;1.80;;;1.25;;
74523;SDS011;63074;44.696;10.358;2023-04-25T09:23:43;1.50;;;1.15;;
74523;SDS011;63074;44.696;10.358;2023-04-25T09:26:13;0.85;;;0.50;;
74523;SDS011;63074;44.696;10.358;2023-04-25T09:28:42;1.42;;;0.57;;
74523;SDS011;63074;44.696;10.358;2023-04-25T09:31:09;0.80;;;0.63;;
74523;SDS011;63074;44.696;10.358;2023-04-25T09:33:40;1.67;;;1.13;;
74523;SDS011;63074;44.696;10.358;2023-04-25T09:36:09;1.90;;;1.33;;
74523;SDS011;63074;44.696;10.358;2023-04-25T09:38:42;1.92;;;1.02;;
74523;SDS011;63074;44.696;10.358;2023-04-25T09:41:10;2.17;;;0.70;;
74523;SDS011;63074;44.696;10.358;2023-04-25T09:43:37;2.17;;;0.82;;
74523;SDS011;63074;44.696;10.358;2023-04-25T09:46:08;2.00;;;1.08;;
74523;SDS011;63074;44.696;10.358;2023-04-25T09:48:36;3.15;;;1.25;;
74523;SDS011;63074;44.696;10.358;2023-04-25T09:53:33;4.97;;;1.40;;
74523;SDS011;63074;44.696;10.358;2023-04-25T09:56:00;3.78;;;1.45;;
74523;SDS011;63074;44.696;10.358;2023-04-25T09:58:33;4.35;;;0.88;;
74523;SDS011;63074;44.696;10.358;2023-04-25T10:01:02;2.13;;;0.65;;
74523;SDS011;63074;44.696;10.358;2023-04-25T10:03:33;1.00;;;0.40;;
74523;SDS011;63074;44.696;10.358;2023-04-25T10:06:05;2.25;;;0.95;;
74523;SDS011;63074;44.696;10.358;2023-04-25T10:08:36;3.15;;;1.08;;
74523;SDS011;63074;44.696;10.358;2023-04-25T10:11:03;2.58;;;1.63;;
74523;SDS011;63074;44.696;10.358;2023-04-25T10:13:32;3.42;;;1.45;;
74523;SDS011;63074;44.696;10.358;2023-04-25T10:16:00;2.03;;;1.27;;
74523;SDS011;63074;44.696;10.358;2023-04-25T10:18:27;3.00;;;1.33;;
74523;SDS011;63074;44.696;10.358;2023-04-25T10:20:55;2.35;;;1.35;;
74523;SDS011;63074;44.696;10.358;2023-04-25T10:23:24;2.67;;;1.25;;
74523;SDS011;63074;44.696;10.358;2023-04-25T10:25:51;2.40;;;1.17;;
74523;SDS011;63074;44.696;10.358;2023-04-25T10:28:18;3.15;;;2.13;;
74523;SDS011;63074;44.696;10.358;2023-04-25T10:30:58;18.75;;;14.95;;
74523;SDS011;63074;44.696;10.358;2023-04-25T10:33:35;3.13;;;1.88;;
74523;SDS011;63074;44.696;10.358;2023-04-25T10:38:47;5.40;;;2.45;;
74523;SDS011;63074;44.696;10.358;2023-04-25T10:41:16;5.00;;;3.33;;
74523;SDS011;63074;44.696;10.358;2023-04-25T10:43:45;3.17;;;2.55;;
74523;SDS011;63074;44.696;10.358;2023-04-25T10:46:19;7.47;;;6.55;;
74523;SDS011;63074;44.696;10.358;2023-04-25T10:48:57;7.63;;;5.70;;
74523;SDS011;63074;44.696;10.358;2023-04-25T10:51:27;6.72;;;6.03;;
74523;SDS011;63074;44.696;10.358;2023-04-25T10:53:59;3.53;;;2.65;;
74523;SDS011;63074;44.696;10.358;2023-04-25T10:56:29;3.03;;;2.03;;
74523;SDS011;63074;44.696;10.358;2023-04-25T11:01:41;2.65;;;1.55;;
74523;SDS011;63074;44.696;10.358;2023-04-25T11:06:55;3.58;;;1.55;;
74523;SDS011;63074;44.696;10.358;2023-04-25T11:09:33;3.83;;;1.83;;
74523;SDS011;63074;44.696;10.358;2023-04-25T11:12:01;2.35;;;1.75;;
74523;SDS011;63074;44.696;10.358;2023-04-25T11:14:27;2.35;;;1.55;;
74523;SDS011;63074;44.696;10.358;2023-04-25T11:16:57;2.33;;;2.13;;
74523;SDS011;63074;44.696;10.358;2023-04-25T11:19:24;2.50;;;2.20;;
74523;SDS011;63074;44.696;10.358;2023-04-25T11:21:54;2.45;;;1.90;;
74523;SDS011;63074;44.696;10.358;2023-04-25T11:27:06;2.67;;;2.47;;
74523;SDS011;63074;44.696;10.358;2023-04-25T11:29:33;2.72;;;1.95;;
74523;SDS011;63074;44.696;10.358;2023-04-25T11:32:00;3.33;;;2.00;;
74523;SDS011;63074;44.696;10.358;2023-04-25T11:34:27;2.90;;;2.28;;
74523;SDS011;63074;44.696;10.358;2023-04-25T11:37:01;3.10;;;2.60;;
74523;SDS011;63074;44.696;10.358;2023-04-25T11:39:28;2.38;;;2.10;;
74523;SDS011;63074;44.696;10.358;2023-04-25T11:41:55;3.35;;;2.38;;
74523;SDS011;63074;44.696;10.358;2023-04-25T11:44:21;3.30;;;1.95;;
74523;SDS011;63074;44.696;10.358;2023-04-25T11:46:48;2.90;;;1.73;;
74523;SDS011;63074;44.696;10.358;2023-04-25T11:49:14;1.85;;;1.48;;
74523;SDS011;63074;44.696;10.358;2023-04-25T11:51:43;2.58;;;1.98;;
74523;SDS011;63074;44.696;10.358;2023-04-25T11:54:11;2.42;;;1.25;;
74523;SDS011;63074;44.696;10.358;2023-04-25T11:56:40;3.97;;;1.55;;
74523;SDS011;63074;44.696;10.358;2023-04-25T11:59:07;2.00;;;1.17;;
74523;SDS011;63074;44.696;10.358;2023-04-25T12:01:35;3.22;;;1.60;;
74523;SDS011;63074;44.696;10.358;2023-04-25T12:04:12;3.58;;;1.75;;
74523;SDS011;63074;44.696;10.358;2023-04-25T12:06:40;2.40;;;1.40;;
74523;SDS011;63074;44.696;10.358;2023-04-25T12:09:11;2.53;;;1.40;;
74523;SDS011;63074;44.696;10.358;2023-04-25T12:11:53;2.20;;;1.45;;
74523;SDS011;63074;44.696;10.358;2023-04-25T12:14:24;3.53;;;1.67;;
74523;SDS011;63074;44.696;10.358;2023-04-25T12:19:23;2.08;;;1.45;;
74523;SDS011;63074;44.696;10.358;2023-04-25T12:21:50;2.50;;;1.65;;
74523;SDS011;63074;44.696;10.358;2023-04-25T12:24:23;5.28;;;1.90;;
74523;SDS011;63074;44.696;10.358;2023-04-25T12:27:03;2.00;;;1.38;;
74523;SDS011;63074;44.696;10.358;2023-04-25T12:29:31;2.92;;;1.60;;
74523;SDS011;63074;44.696;10.358;2023-04-25T12:31:58;3.20;;;1.55;;
74523;SDS011;63074;44.696;10.358;2023-04-25T12:34:27;3.28;;;1.65;;
74523;SDS011;63074;44.696;10.358;2023-04-25T12:36:53;4.03;;;1.45;;
74523;SDS011;63074;44.696;10.358;2023-04-25T12:39:20;2.28;;;1.63;;
74523;SDS011;63074;44.696;10.358;2023-04-25T12:41:48;2.30;;;1.45;;
74523;SDS011;63074;44.696;10.358;2023-04-25T12:44:15;2.25;;;1.60;;
74523;SDS011;63074;44.696;10.358;2023-04-25T12:46:42;3.58;;;1.42;;
74523;SDS011;63074;44.696;10.358;2023-04-25T12:49:08;2.05;;;1.27;;
74523;SDS011;63074;44.696;10.358;2023-04-25T12:51:35;2.83;;;1.23;;
74523;SDS011;63074;44.696;10.358;2023-04-25T12:54:02;2.03;;;1.15;;
74523;SDS011;63074;44.696;10.358;2023-04-25T12:56:30;2.25;;;1.25;;
74523;SDS011;63074;44.696;10.358;2023-04-25T12:58:56;2.95;;;1.75;;
74523;SDS011;63074;44.696;10.358;2023-04-25T13:01:23;3.47;;;1.65;;
74523;SDS011;63074;44.696;10.358;2023-04-25T13:03:49;2.30;;;1.77;;
74523;SDS011;63074;44.696;10.358;2023-04-25T13:06:16;3.38;;;1.65;;
74523;SDS011;63074;44.696;10.358;2023-04-25T13:08:43;3.20;;;1.33;;
74523;SDS011;63074;44.696;10.358;2023-04-25T13:11:09;3.00;;;2.10;;
74523;SDS011;63074;44.696;10.358;2023-04-25T13:13:36;1.95;;;1.60;;
74523;SDS011;63074;44.696;10.358;2023-04-25T13:16:05;3.40;;;1.50;;
74523;SDS011;63074;44.696;10.358;2023-04-25T13:18:32;3.17;;;1.40;;
74523;SDS011;63074;44.696;10.358;2023-04-25T13:20:59;4.00;;;1.33;;
74523;SDS011;63074;44.696;10.358;2023-04-25T13:23:27;5.13;;;2.03;;
74523;SDS011;63074;44.696;10.358;2023-04-25T13:28:25;2.85;;;1.98;;
74523;SDS011;63074;44.696;10.358;2023-04-25T13:30:52;2.35;;;1.58;;
74523;SDS011;63074;44.696;10.358;2023-04-25T13:33:19;2.80;;;1.45;;
74523;SDS011;63074;44.696;10.358;2023-04-25T13:35:46;2.25;;;1.63;;
74523;SDS011;63074;44.696;10.358;2023-04-25T13:40:50;4.70;;;1.38;;
74523;SDS011;63074;44.696;10.358;2023-04-25T13:43:20;7.05;;;1.75;;
74523;SDS011;63074;44.696;10.358;2023-04-25T13:48:16;4.70;;;1.73;;
74523;SDS011;63074;44.696;10.358;2023-04-25T13:50:43;2.13;;;1.50;;
74523;SDS011;63074;44.696;10.358;2023-04-25T13:53:10;4.28;;;1.50;;
74523;SDS011;63074;44.696;10.358;2023-04-25T14:01:06;5.28;;;1.50;;
74523;SDS011;63074;44.696;10.358;2023-04-25T14:03:32;3.85;;;1.63;;
74523;SDS011;63074;44.696;10.358;2023-04-25T14:05:58;3.03;;;1.35;;
74523;SDS011;63074;44.696;10.358;2023-04-25T14:08:25;5.00;;;1.30;;
74523;SDS011;63074;44.696;10.358;2023-04-25T14:10:52;2.03;;;1.30;;
74523;SDS011;63074;44.696;10.358;2023-04-25T14:13:18;2.95;;;0.95;;
74523;SDS011;63074;44.696;10.358;2023-04-25T14:15:44;2.72;;;1.10;;
74523;SDS011;63074;44.696;10.358;2023-04-25T14:18:10;1.50;;;1.23;;
74523;SDS011;63074;44.696;10.358;2023-04-25T14:20:37;3.55;;;1.40;;
74523;SDS011;63074;44.696;10.358;2023-04-25T14:23:03;3.85;;;1.23;;
74523;SDS011;63074;44.696;10.358;2023-04-25T14:25:29;2.20;;;1.00;;
74523;SDS011;63074;44.696;10.358;2023-04-25T14:27:56;1.77;;;1.13;;
74523;SDS011;63074;44.696;10.358;2023-04-25T14:30:22;2.28;;;1.15;;
74523;SDS011;63074;44.696;10.358;2023-04-25T14:32:48;3.83;;;0.90;;
74523;SDS011;63074;44.696;10.358;2023-04-25T14:35:15;2.47;;;1.00;;
74523;SDS011;63074;44.696;10.358;2023-04-25T14:37:41;2.05;;;0.90;;
74523;SDS011;63074;44.696;10.358;2023-04-25T14:40:08;1.52;;;0.93;;
74523;SDS011;63074;44.696;10.358;2023-04-25T14:42:35;2.08;;;1.15;;
74523;SDS011;63074;44.696;10.358;2023-04-25T14:45:02;1.52;;;0.70;;
74523;SDS011;63074;44.696;10.358;2023-04-25T14:47:29;1.63;;;1.02;;
74523;SDS011;63074;44.696;10.358;2023-04-25T14:49:56;3.60;;;0.90;;
74523;SDS011;63074;44.696;10.358;2023-04-25T14:52:22;2.47;;;1.13;;
74523;SDS011;63074;44.696;10.358;2023-04-25T14:54:49;2.03;;;0.85;;
74523;SDS011;63074;44.696;10.358;2023-04-25T14:57:15;1.25;;;0.60;;
74523;SDS011;63074;44.696;10.358;2023-04-25T14:59:41;1.40;;;0.52;;
74523;SDS011;63074;44.696;10.358;2023-04-25T15:02:07;1.58;;;0.95;;
74523;SDS011;63074;44.696;10.358;2023-04-25T15:04:33;1.25;;;0.70;;